Tulum, ROO, Mexico
Current Conditions -  °F | °C
As of 11:46 PM on Monday 20 Oct 2014 (Local Time) from MMCZ Reporting Station
Overcast Overcast  
Wind Chill: 72°   Ceiling: 1500
Heat Index: 72°   Visibility: 5mi
Dew Point: 72°   Wind: 0mph
Humidity: 100%   Direction: NA
Pressure: 29.87"   Gusts: NA
Location:  20.22°N, 87.47°W
Report Text: MMCZ 210446Z 00000KT 5SM BKN015CB BKN080 OVC250 22/22 A2987 RMK 60105 8/377 -RAB30 RTS
Loading
Personal Weather Stations






























Interactive Weather Map
Tropical Storm Tracking
New forecast layout! Learn more

10-Day Weather Forecast

Advertisements
Track Severe Weather on mobile